EET,Max TemperatureF,Mean TemperatureF,Min TemperatureF,Max Dew PointF,MeanDew PointF,Min DewpointF,Max Humidity, Mean Humidity, Min Humidity, Max Sea Level PressureIn, Mean Sea Level PressureIn, Min Sea Level PressureIn, Max VisibilityMiles, Mean VisibilityMiles, Min VisibilityMiles, Max Wind SpeedMPH, Mean Wind SpeedMPH, Max Gust SpeedMPH,PrecipitationIn, CloudCover, Events, WindDirDegrees
2012-11-1,55,52,48,54,48,43,100,91,82,29.95,29.81,29.71,6,6,6,17,3,,0.00,8,Rain-Thunderstorm,9
2012-11-2,62,54,46,54,48,43,100,86,63,29.98,29.87,29.80,6,4,0,7,2,,0.00,4,Fog,327
2012-11-3,66,54,42,50,44,39,87,73,49,30.09,30.05,29.98,6,6,6,8,5,,0.00,4,,331
2012-11-4,66,55,44,50,45,41,87,76,49,30.12,30.07,30.04,6,6,6,6,3,,0.00,5,,353
2012-11-5,68,58,48,54,49,45,87,76,56,30.04,29.97,29.89,6,6,6,9,3,,0.00,4,,111
2012-11-6,73,62,51,57,45,27,94,59,29,30.04,29.92,29.86,6,6,6,13,4,,0.00,4,Rain,303
2012-11-7,59,50,42,46,37,27,87,61,33,30.15,30.07,30.04,6,6,6,24,7,37,0.00,6,Rain,327
2012-11-8,51,44,37,32,29,25,75,59,41,30.24,30.19,30.15,,,,21,15,32,0.00,,,329
2012-11-9,57,45,33,36,32,28,87,64,36,30.15,30.07,29.98,6,6,6,13,5,,0.00,3,,327
2012-11-10,57,48,39,34,31,28,75,56,33,30.24,30.15,30.06,,,,13,9,,0.00,,,330
2012-11-11,57,45,33,39,35,28,87,73,51,30.33,30.29,30.24,,,,7,4,,0.00,,,20
2012-11-12,53,44,35,43,39,34,93,81,62,30.33,30.30,30.27,6,6,6,6,3,,0.00,6,,346
2012-11-13,60,50,39,46,41,37,93,74,55,30.30,30.23,30.18,6,6,6,7,4,,0.00,6,,320
2012-11-14,51,48,44,45,41,39,87,76,71,30.30,30.25,30.24,6,6,4,9,3,,0.00,7,,338
2012-11-15,51,48,46,46,43,43,93,82,71,30.24,30.19,30.18,6,6,6,6,1,,0.00,7,Rain,175
2012-11-16,51,48,46,45,43,41,87,80,71,30.18,30.17,30.15,6,6,6,6,3,,0.00,7,Rain,331
2012-11-17,55,50,44,46,44,41,87,80,67,30.18,30.14,30.09,6,6,6,5,2,,0.00,6,Rain,335
2012-11-18,53,48,42,46,44,43,100,85,72,30.12,30.10,30.06,6,6,6,4,1,,0.00,7,Rain,-1
2012-11-19,53,48,42,46,45,41,93,88,72,30.09,30.07,30.04,6,6,4,5,1,,0.00,8,Rain,250
2012-11-20,51,50,48,48,47,46,94,91,87,30.06,30.03,30.01,6,6,5,8,3,,0.00,8,Rain,333
2012-11-21,55,52,50,48,47,41,94,85,71,30.18,30.10,30.06,6,6,5,12,5,,0.00,8,Rain,357
2012-11-22,57,49,41,46,42,39,93,82,63,30.24,30.20,30.18,6,6,6,7,4,,0.00,4,,347
2012-11-23,46,42,39,45,42,37,100,93,87,30.24,30.21,30.18,2,2,0,7,3,,0.00,7,Fog-Rain,338
2012-11-24,55,48,41,48,43,39,100,92,77,30.24,30.20,30.18,6,1,0,5,1,,0.00,7,Fog,35
2012-11-25,57,49,41,46,43,39,100,86,58,30.24,30.19,30.15,6,4,2,6,2,,0.00,5,,8
2012-11-26,55,48,41,46,42,39,93,86,63,30.21,30.16,30.12,6,5,0,6,2,,0.00,5,Fog,350
2012-11-27,50,44,37,43,41,36,100,90,76,30.12,30.07,30.04,6,5,2,5,1,,0.00,6,,340
2012-11-28,55,48,41,46,43,39,93,90,72,30.04,29.96,29.86,6,5,2,6,1,,0.00,5,Rain,25
2012-11-29,55,48,42,52,45,36,100,83,62,29.83,29.72,29.62,6,4,0,10,5,,0.00,6,Fog-Rain,164
2012-11-30,59,50,41,43,39,36,87,69,48,29.80,29.74,29.68,6,6,6,14,4,,0.00,4,Rain,162